Time;durP1;ratioP1;P1;durP2;ratioP2;P2;SDS_P1;SDS_P2;PMS_P1;PMS_P2;Temp;Humidity;BMP_temperature;BMP_pressure;BME280_temperature;BME280_humidity;BME280_pressure;Samples;Min_cycle;Max_cycle;Signal;HPM_P1;HPM_P2
2021/11/26 00:00:29;;;;;;;;;7.00;6.50;;;;;-147.17;100.00;50408.97;5024220;28;51232;-60
2021/11/26 00:02:55;;;;;;;;;8.50;7.00;;;;;-147.17;100.00;50401.09;5020815;28;51116;-61
2021/11/26 00:05:20;;;;;;;;;6.75;6.75;;;;;-147.17;100.00;50391.25;5022289;28;51273;-61
2021/11/26 00:07:46;;;;;;;;;6.50;6.50;;;;;-147.17;100.00;50383.38;5022710;28;51189;-60
2021/11/26 00:10:11;;;;;;;;;7.25;7.00;;;;;-147.17;100.00;50418.81;5024312;28;51819;-62
2021/11/26 00:12:37;;;;;;;;;7.00;4.50;;;;;-147.17;100.00;50412.91;5024808;28;51117;-63
2021/11/26 00:17:32;;;;;;;;;10.25;9.50;;;;;-147.17;100.00;50371.56;5025914;28;51123;-64
2021/11/26 00:19:58;;;;;;;;;9.50;8.50;;;;;-147.17;100.00;50418.81;5024840;28;51160;-62
2021/11/26 00:22:23;;;;;;;;;9.50;8.75;;;;;-147.17;100.00;50410.94;5024910;28;51241;-62
2021/11/26 00:24:49;;;;;;;;;9.00;8.00;;;;;-147.17;100.00;50416.84;5027574;28;51186;-63
2021/11/26 00:27:14;;;;;;;;;10.00;10.00;;;;;-147.17;100.00;50367.63;5024269;28;52640;-63
2021/11/26 00:29:40;;;;;;;;;9.00;9.00;;;;;-147.17;100.00;50408.97;5025729;28;51719;-63
2021/11/26 00:32:06;;;;;;;;;7.50;7.50;;;;;-147.17;100.00;50414.88;5022855;28;52221;-64
2021/11/26 00:34:31;;;;;;;;;8.25;7.50;;;;;-147.17;100.00;50418.81;5021242;28;51371;-61
2021/11/26 00:36:56;;;;;;;;;8.00;7.25;;;;;-147.17;100.00;50391.25;5023254;28;51184;-61
2021/11/26 00:39:22;;;;;;;;;5.00;3.00;;;;;-147.17;100.00;50407.00;5022166;28;52170;-62
2021/11/26 00:41:47;;;;;;;;;5.25;4.00;;;;;-147.17;100.00;50399.13;5020751;28;51275;-61
2021/11/26 00:44:13;;;;;;;;;9.00;8.25;;;;;-147.17;100.00;50391.25;5019664;28;51664;-61
2021/11/26 00:46:38;;;;;;;;;9.00;7.25;;;;;-147.17;100.00;50397.16;5026442;28;51098;-62
2021/11/26 00:49:04;;;;;;;;;7.50;7.50;;;;;-147.17;100.00;50410.94;5019548;28;51091;-60
2021/11/26 00:51:31;;;;;;;;;8.50;7.00;;;;;-147.17;100.00;50426.69;5019815;28;52313;-61
2021/11/26 00:53:58;;;;;;;;;8.00;7.00;;;;;-147.17;100.00;50407.00;5023004;28;51198;-60
2021/11/26 00:56:24;;;;;;;;;7.00;7.00;;;;;-147.17;100.00;50446.38;5024454;28;51422;-66
2021/11/26 00:58:49;;;;;;;;;8.00;7.25;;;;;-147.17;100.00;50407.00;5026816;28;51932;-64
2021/11/26 01:01:15;;;;;;;;;8.25;7.25;;;;;-147.17;100.00;50391.25;5023523;28;51103;-60
2021/11/26 01:03:40;;;;;;;;;7.25;7.25;;;;;-147.17;100.00;50395.19;5028008;28;51029;-65
2021/11/26 01:06:06;;;;;;;;;8.75;7.00;;;;;-147.17;100.00;50420.78;5021995;28;51368;-65
2021/11/26 01:08:31;;;;;;;;;6.75;6.00;;;;;-147.17;100.00;50418.81;5023079;28;51059;-63
2021/11/26 01:10:56;;;;;;;;;6.00;5.00;;;;;-147.17;100.00;50401.09;5021628;28;51176;-61
2021/11/26 01:13:22;;;;;;;;;6.00;6.00;;;;;-147.17;100.00;50397.16;5022367;28;51547;-62
2021/11/26 01:15:48;;;;;;;;;6.50;6.00;;;;;-147.17;100.00;50426.69;5023984;28;51284;-61
2021/11/26 01:18:14;;;;;;;;;7.00;7.00;;;;;-147.17;100.00;50410.94;5022976;28;51863;-62
2021/11/26 01:20:40;;;;;;;;;4.00;4.00;;;;;-147.17;100.00;50420.78;5020446;28;51348;-64
2021/11/26 01:23:06;;;;;;;;;8.75;7.50;;;;;-147.17;100.00;50407.00;5019991;28;51211;-65
2021/11/26 01:25:33;;;;;;;;;7.00;5.50;;;;;-147.17;100.00;50395.19;5020465;28;51047;-65
2021/11/26 01:27:59;;;;;;;;;27.50;22.00;;;;;-147.17;100.00;50426.69;5033535;28;52914;-63
2021/11/26 01:30:34;;;;;;;;;7.00;6.25;;;;;-147.17;100.00;50416.84;5025332;28;51924;-66
2021/11/26 01:33:05;;;;;;;;;7.00;7.00;;;;;-147.17;100.00;50430.63;5027679;28;51094;-68
2021/11/26 01:35:31;;;;;;;;;10.00;8.25;;;;;-147.17;100.00;50379.44;5027431;28;51384;-68
2021/11/26 01:37:57;;;;;;;;;9.00;9.00;;;;;-147.17;100.00;50422.75;5028066;28;52033;-67
2021/11/26 01:40:23;;;;;;;;;8.25;7.50;;;;;-147.17;100.00;50430.63;5031596;28;51113;-67
2021/11/26 01:42:51;;;;;;;;;9.00;8.50;;;;;-147.17;100.00;50391.25;5029724;28;51238;-67
2021/11/26 01:45:17;;;;;;;;;6.00;6.00;;;;;-147.17;100.00;50395.19;5025163;28;51892;-65
2021/11/26 01:47:43;;;;;;;;;7.50;7.50;;;;;-147.17;100.00;50397.16;5031697;28;51868;-68
2021/11/26 01:50:11;;;;;;;;;9.00;8.00;;;;;-147.17;100.00;50424.72;5028494;28;51213;-67
2021/11/26 01:52:36;;;;;;;;;8.00;7.00;;;;;-147.17;100.00;50395.19;5029264;28;51300;-68
2021/11/26 01:55:05;;;;;;;;;9.00;8.00;;;;;-147.17;100.00;50412.91;5029800;28;51018;-65
2021/11/26 01:57:30;;;;;;;;;8.25;7.25;;;;;-147.17;100.00;50428.66;5028962;28;51950;-65
2021/11/26 01:59:56;;;;;;;;;6.75;6.75;;;;;-147.17;100.00;50412.91;5017447;28;51161;-68
2021/11/26 02:02:22;;;;;;;;;8.25;7.75;;;;;-147.17;100.00;50418.81;5016541;28;51040;-68
2021/11/26 02:04:48;;;;;;;;;8.50;8.50;;;;;-147.17;100.00;50403.06;5015100;28;51036;-66
2021/11/26 02:07:14;;;;;;;;;8.00;7.00;;;;;-147.17;100.00;50424.72;5026910;28;53368;-64
2021/11/26 02:09:40;;;;;;;;;8.75;8.50;;;;;-147.17;100.00;50414.88;5035656;28;50927;-64
2021/11/26 02:12:06;;;;;;;;;8.00;8.00;;;;;-147.17;100.00;50410.94;5031203;28;51149;-63
2021/11/26 02:14:32;;;;;;;;;7.50;6.25;;;;;-147.17;100.00;50428.66;5024390;28;51341;-63
2021/11/26 02:16:58;;;;;;;;;6.75;6.00;;;;;-147.17;100.00;50395.19;5033474;28;51856;-63
2021/11/26 02:19:26;;;;;;;;;8.00;7.00;;;;;-147.17;100.00;50405.03;5034967;28;51616;-64
2021/11/26 02:21:53;;;;;;;;;7.50;6.25;;;;;-147.17;100.00;50434.56;5033877;28;51183;-64
2021/11/26 02:24:19;;;;;;;;;7.75;5.00;;;;;-147.17;100.00;50395.19;5035074;28;51048;-63
2021/11/26 02:26:47;;;;;;;;;5.75;5.75;;;;;-147.17;100.00;50420.78;5024603;28;52155;-64
2021/11/26 02:29:15;;;;;;;;;11.00;9.00;;;;;-147.17;100.00;50412.91;5032647;28;50982;-64
2021/11/26 02:31:41;;;;;;;;;8.75;8.50;;;;;-147.17;100.00;50426.69;5030628;28;51151;-64
2021/11/26 02:34:06;;;;;;;;;10.00;10.00;;;;;-147.17;100.00;50422.75;5015129;28;51000;-63
2021/11/26 02:36:32;;;;;;;;;7.50;6.50;;;;;-147.17;100.00;50420.78;5030396;28;51820;-64
2021/11/26 02:38:57;;;;;;;;;9.25;8.00;;;;;-147.17;100.00;50434.56;5025955;28;51000;-64
2021/11/26 02:41:23;;;;;;;;;8.25;7.50;;;;;-147.17;100.00;50426.69;5023080;28;51046;-64
2021/11/26 02:43:49;;;;;;;;;11.25;10.00;;;;;-147.17;100.00;50418.81;5014597;28;51048;-63
2021/11/26 02:46:14;;;;;;;;;7.00;6.00;;;;;-147.17;100.00;50424.72;5026597;28;51277;-64
2021/11/26 02:48:40;;;;;;;;;8.00;7.25;;;;;-147.17;100.00;50401.09;5034617;28;51059;-63
2021/11/26 02:51:05;;;;;;;;;8.00;8.00;;;;;-147.17;100.00;50393.22;5035458;28;51112;-63
2021/11/26 02:53:31;;;;;;;;;9.25;7.25;;;;;-147.17;100.00;50397.16;5035233;28;51127;-63
2021/11/26 02:55:56;;;;;;;;;7.00;7.00;;;;;-147.17;100.00;50416.84;5033139;28;52051;-63
2021/11/26 02:58:22;;;;;;;;;8.75;8.00;;;;;-147.17;100.00;50357.78;5025418;28;51013;-63
2021/11/26 03:00:51;;;;;;;;;8.75;7.75;;;;;-147.17;100.00;50416.84;5021390;28;51373;-63
2021/11/26 03:03:17;;;;;;;;;7.00;7.00;;;;;-147.17;100.00;50395.19;5014223;28;51223;-63
2021/11/26 03:05:42;;;;;;;;;7.50;7.50;;;;;-147.17;100.00;50420.78;5026726;28;52205;-64
2021/11/26 03:08:08;;;;;;;;;7.25;7.25;;;;;-147.17;100.00;50418.81;5033130;28;51189;-64
2021/11/26 03:10:35;;;;;;;;;7.50;6.25;;;;;-147.17;100.00;50407.00;5015223;28;51124;-64
2021/11/26 03:13:04;;;;;;;;;6.00;6.00;;;;;-147.17;100.00;50403.06;5016846;28;51179;-64
2021/11/26 03:15:31;;;;;;;;;8.00;7.00;;;;;-147.17;100.00;50403.06;5029200;28;52942;-64
2021/11/26 03:17:57;;;;;;;;;6.00;6.00;;;;;-147.17;100.00;50395.19;5031607;28;51178;-64
2021/11/26 03:20:25;;;;;;;;;11.25;8.25;;;;;-147.17;100.00;50381.41;5014696;28;51016;-64
2021/11/26 03:22:50;;;;;;;;;8.50;7.00;;;;;-147.17;100.00;50387.31;5014734;28;51401;-63
2021/11/26 03:25:16;;;;;;;;;7.00;5.75;;;;;-147.17;100.00;50375.50;5028946;28;51783;-64
2021/11/26 03:27:43;;;;;;;;;6.75;6.75;;;;;-147.17;100.00;50345.97;5031805;28;51220;-64
2021/11/26 03:30:10;;;;;;;;;7.00;7.00;;;;;-147.17;100.00;50391.25;5029694;28;51141;-64
2021/11/26 03:32:36;;;;;;;;;2.25;2.25;;;;;-147.17;100.00;50391.25;5033207;28;51096;-64
2021/11/26 03:35:03;;;;;;;;;6.00;2.50;;;;;-147.17;100.00;50387.31;5030754;28;52784;-63
2021/11/26 03:37:28;;;;;;;;;7.75;7.00;;;;;-147.17;100.00;50379.44;5033311;28;51260;-64
2021/11/26 03:39:53;;;;;;;;;7.75;6.00;;;;;-147.17;100.00;50403.06;5034134;28;51530;-64
2021/11/26 03:42:19;;;;;;;;;8.50;8.00;;;;;-147.17;100.00;50371.56;5034485;28;50886;-64
2021/11/26 03:44:44;;;;;;;;;7.75;6.75;;;;;-147.17;100.00;50377.47;5031153;28;51986;-65
2021/11/26 03:47:09;;;;;;;;;6.00;5.00;;;;;-147.17;100.00;50379.44;5026610;28;51112;-64
2021/11/26 03:49:35;;;;;;;;;7.75;6.50;;;;;-147.17;100.00;50387.31;5013642;28;50883;-64
2021/11/26 03:52:00;;;;;;;;;7.50;7.25;;;;;-147.17;100.00;50338.09;5032843;28;51331;-65
2021/11/26 03:54:25;;;;;;;;;8.50;7.75;;;;;-147.17;100.00;50383.38;5033703;28;50928;-64
2021/11/26 03:56:51;;;;;;;;;10.25;8.50;;;;;-147.17;100.00;50405.03;5031977;28;51025;-64
2021/11/26 03:59:16;;;;;;;;;8.25;7.00;;;;;-147.17;100.00;50395.19;5033187;28;51149;-64
2021/11/26 04:01:42;;;;;;;;;7.75;7.50;;;;;-147.17;100.00;50391.25;5033745;28;51229;-64
2021/11/26 04:04:07;;;;;;;;;6.25;6.25;;;;;-147.17;100.00;50369.59;5044575;28;53109;-64
2021/11/26 04:06:32;;;;;;;;;11.75;9.50;;;;;-147.17;100.00;50351.88;5032021;28;51037;-64
2021/11/26 04:08:58;;;;;;;;;10.25;8.00;;;;;-147.17;100.00;50391.25;5026485;28;51072;-64
2021/11/26 04:11:25;;;;;;;;;5.50;5.50;;;;;-147.17;100.00;50407.00;5014505;28;51016;-64
2021/11/26 04:13:51;;;;;;;;;9.75;7.50;;;;;-147.17;100.00;50375.50;5013398;28;53016;-64
2021/11/26 04:16:17;;;;;;;;;7.25;7.00;;;;;-147.17;100.00;50379.44;5022277;28;51162;-64
2021/11/26 04:18:43;;;;;;;;;7.50;7.25;;;;;-147.17;100.00;50391.25;5016787;28;51205;-64
2021/11/26 04:21:09;;;;;;;;;8.75;7.75;;;;;-147.17;100.00;50377.47;5027405;28;51259;-64
2021/11/26 04:23:35;;;;;;;;;7.00;6.00;;;;;-147.17;100.00;50379.44;5019286;28;52322;-64
2021/11/26 04:26:01;;;;;;;;;7.00;7.00;;;;;-147.17;100.00;50383.38;5016770;28;51006;-64
2021/11/26 04:28:27;;;;;;;;;6.25;6.25;;;;;-147.17;100.00;50363.69;5043712;28;51156;-64
2021/11/26 04:30:53;;;;;;;;;9.75;8.00;;;;;-147.17;100.00;50347.94;5013774;28;50960;-64
2021/11/26 04:33:19;;;;;;;;;8.00;8.00;;;;;-147.17;100.00;50387.31;5027390;28;52143;-64
2021/11/26 04:35:48;;;;;;;;;8.00;8.00;;;;;-147.17;100.00;50379.44;5031536;28;50999;-63
2021/11/26 04:38:15;;;;;;;;;11.00;10.00;;;;;-147.17;100.00;50387.31;5026189;28;51296;-64
2021/11/26 04:40:40;;;;;;;;;7.50;7.50;;;;;-147.17;100.00;50375.50;5031070;28;51201;-63
2021/11/26 04:43:06;;;;;;;;;7.50;7.00;;;;;-147.17;100.00;50359.75;5013431;28;50945;-64
2021/11/26 04:45:31;;;;;;;;;11.00;8.25;;;;;-147.17;100.00;50399.13;5019199;28;51145;-64
2021/11/26 04:47:56;;;;;;;;;11.75;8.00;;;;;-147.17;100.00;50385.34;5031049;28;51381;-64
2021/11/26 04:50:22;;;;;;;;;7.00;6.50;;;;;-147.17;100.00;50367.63;5019980;28;51445;-64
2021/11/26 04:52:47;;;;;;;;;12.50;10.50;;;;;-147.17;100.00;50373.53;5032713;28;52166;-64
2021/11/26 04:55:14;;;;;;;;;11.00;10.00;;;;;-147.17;100.00;50375.50;5028747;28;51142;-64
2021/11/26 04:57:40;;;;;;;;;13.75;13.25;;;;;-147.17;100.00;50357.78;5031453;28;51443;-64
2021/11/26 05:00:08;;;;;;;;;8.25;8.25;;;;;-147.17;100.00;50389.28;5020669;28;51071;-64
2021/11/26 05:02:33;;;;;;;;;10.75;10.00;;;;;-147.17;100.00;50367.63;5026313;28;51822;-64
2021/11/26 05:04:59;;;;;;;;;11.00;9.25;;;;;-147.17;100.00;50387.31;5031775;28;50964;-64
2021/11/26 05:07:24;;;;;;;;;8.50;8.00;;;;;-147.17;100.00;50381.41;5029267;28;51384;-64
2021/11/26 05:09:52;;;;;;;;;11.00;10.75;;;;;-147.17;100.00;50375.50;5032138;28;51340;-64
2021/11/26 05:12:17;;;;;;;;;7.00;7.00;;;;;-147.17;100.00;50357.78;5020887;28;51752;-64
2021/11/26 05:14:42;;;;;;;;;12.00;9.75;;;;;-147.17;100.00;50377.47;5014014;28;51186;-65
2021/11/26 05:17:08;;;;;;;;;11.00;11.00;;;;;-147.17;100.00;50385.34;5030027;28;51726;-65
2021/11/26 05:19:33;;;;;;;;;10.50;10.00;;;;;-147.17;100.00;50405.03;5032067;28;51028;-63
2021/11/26 05:21:58;;;;;;;;;12.25;11.25;;;;;-147.17;100.00;50377.47;5031155;28;51971;-64
2021/11/26 05:24:24;;;;;;;;;10.25;10.00;;;;;-147.17;100.00;50399.13;5026960;28;51015;-65
2021/11/26 05:26:49;;;;;;;;;10.25;9.75;;;;;-147.17;100.00;50379.44;5017681;28;51518;-64
2021/11/26 05:29:14;;;;;;;;;11.50;9.50;;;;;-147.17;100.00;50383.38;5031437;28;51193;-64
2021/11/26 05:31:40;;;;;;;;;9.00;7.50;;;;;-147.17;100.00;50379.44;5024333;28;52048;-64
2021/11/26 05:34:08;;;;;;;;;11.25;11.00;;;;;-147.17;100.00;50391.25;5030974;28;51015;-63
2021/11/26 05:36:35;;;;;;;;;11.75;10.00;;;;;-147.17;100.00;50395.19;5018515;28;51137;-63
2021/11/26 05:39:02;;;;;;;;;15.75;15.00;;;;;-147.17;100.00;50397.16;5024826;28;51144;-64
2021/11/26 05:41:27;;;;;;;;;10.50;9.50;;;;;-147.17;100.00;50369.59;5030947;28;51720;-65
2021/11/26 05:43:53;;;;;;;;;11.75;11.00;;;;;-147.17;100.00;50389.28;5035595;28;51106;-64
2021/11/26 05:46:18;;;;;;;;;11.00;10.25;;;;;-147.17;100.00;50387.31;5022495;28;51040;-63
2021/11/26 05:48:44;;;;;;;;;10.75;8.50;;;;;-147.17;100.00;50389.28;5025388;28;51244;-63
2021/11/26 05:51:09;;;;;;;;;16.50;15.00;;;;;-147.17;100.00;50391.25;5031022;28;52409;-63
2021/11/26 05:53:35;;;;;;;;;17.00;15.00;;;;;-147.17;100.00;50379.44;5032269;28;51052;-64
2021/11/26 05:56:00;;;;;;;;;12.00;12.00;;;;;-147.17;100.00;50375.50;5031460;28;51003;-63
2021/11/26 05:58:27;;;;;;;;;13.50;12.00;;;;;-147.17;100.00;50391.25;5021040;28;51317;-63
2021/11/26 06:00:52;;;;;;;;;14.25;12.00;;;;;-147.17;100.00;50414.88;5026163;28;52080;-64
2021/11/26 06:03:18;;;;;;;;;13.75;12.25;;;;;-147.17;100.00;50414.88;5021782;28;51342;-62
2021/11/26 06:05:43;;;;;;;;;8.75;8.25;;;;;-147.17;100.00;50383.38;5022758;28;51387;-64
2021/11/26 06:08:08;;;;;;;;;15.75;14.00;;;;;-147.17;100.00;50383.38;5017189;28;51219;-63
2021/11/26 06:10:34;;;;;;;;;12.00;11.50;;;;;-147.17;100.00;50375.50;5015099;28;50964;-64
2021/11/26 06:12:59;;;;;;;;;12.50;11.50;;;;;-147.17;100.00;50367.63;5027341;28;51143;-63
2021/11/26 06:15:25;;;;;;;;;8.00;8.00;;;;;-147.17;100.00;50412.91;5015476;28;51154;-63
2021/11/26 06:17:50;;;;;;;;;13.50;12.25;;;;;-147.17;100.00;50387.31;5029791;28;51114;-63
2021/11/26 06:20:16;;;;;;;;;44.25;35.00;;;;;-147.17;100.00;50379.44;5044832;28;54206;-63
2021/11/26 06:22:42;;;;;;;;;12.50;12.50;;;;;-147.17;100.00;50363.69;5030025;28;51295;-63
2021/11/26 06:25:09;;;;;;;;;13.00;11.00;;;;;-147.17;100.00;50408.97;5031553;28;51284;-63
2021/11/26 06:27:35;;;;;;;;;12.25;10.75;;;;;-147.17;100.00;50381.41;5032446;28;51054;-64
2021/11/26 06:30:00;;;;;;;;;11.25;11.00;;;;;-147.17;100.00;50389.28;5030467;28;51167;-64
2021/11/26 06:32:26;;;;;;;;;11.00;9.25;;;;;-147.17;100.00;50416.84;5029544;28;51174;-63
2021/11/26 06:34:52;;;;;;;;;11.25;10.50;;;;;-147.17;100.00;50379.44;5044583;28;51179;-64
2021/11/26 06:37:17;;;;;;;;;11.00;11.00;;;;;-147.17;100.00;50375.50;5034798;28;51254;-63
2021/11/26 06:39:43;;;;;;;;;13.25;12.50;;;;;-147.17;100.00;50385.34;5034194;28;51778;-63
2021/11/26 06:42:08;;;;;;;;;7.25;7.25;;;;;-147.17;100.00;50383.38;5033406;28;51109;-64
2021/11/26 06:44:36;;;;;;;;;13.25;12.00;;;;;-147.17;100.00;50381.41;5016434;28;51042;-64
2021/11/26 06:47:02;;;;;;;;;7.75;7.75;;;;;-147.17;100.00;50385.34;5033719;28;50896;-64
2021/11/26 06:49:28;;;;;;;;;10.00;10.00;;;;;-147.17;100.00;50397.16;5014505;28;51734;-64
2021/11/26 06:51:53;;;;;;;;;11.50;10.00;;;;;-147.17;100.00;50385.34;5014987;28;50829;-64
2021/11/26 06:54:19;;;;;;;;;10.50;8.00;;;;;-147.17;100.00;50391.25;5030413;28;52083;-64
2021/11/26 06:56:44;;;;;;;;;13.00;10.00;;;;;-147.17;100.00;50395.19;5019911;28;51346;-63
2021/11/26 06:59:10;;;;;;;;;11.25;9.75;;;;;-147.17;100.00;50422.75;5027835;28;51141;-63
2021/11/26 07:01:36;;;;;;;;;10.25;9.75;;;;;-147.17;100.00;50385.34;5031098;28;51216;-61
2021/11/26 07:04:02;;;;;;;;;11.25;11.00;;;;;-147.17;100.00;50395.19;5044469;28;51349;-61
2021/11/26 07:06:27;;;;;;;;;7.75;7.25;;;;;-147.17;100.00;50395.19;5032887;28;51310;-62
2021/11/26 07:08:53;;;;;;;;;11.50;10.50;;;;;-147.17;100.00;50403.06;5034229;28;51528;-62
2021/11/26 07:11:18;;;;;;;;;10.50;9.75;;;;;-147.17;100.00;50395.19;5032872;28;51038;-62
2021/11/26 07:13:43;;;;;;;;;12.00;10.00;;;;;-147.17;100.00;50391.25;5021094;28;52103;-63
2021/11/26 07:16:09;;;;;;;;;10.25;8.50;;;;;-147.17;100.00;50408.97;5020941;28;51138;-62
2021/11/26 07:18:34;;;;;;;;;10.00;10.00;;;;;-147.17;100.00;50393.22;5033776;28;51422;-61
2021/11/26 07:21:00;;;;;;;;;12.00;11.00;;;;;-147.17;100.00;50407.00;5033362;28;51091;-63
2021/11/26 07:23:25;;;;;;;;;11.50;10.25;;;;;-147.17;100.00;50408.97;5026337;28;51606;-62
2021/11/26 07:25:51;;;;;;;;;11.50;11.00;;;;;-147.17;100.00;50414.88;5023842;28;50872;-62
2021/11/26 07:28:16;;;;;;;;;12.25;9.75;;;;;-147.17;100.00;50416.84;5049461;28;51938;-61
2021/11/26 07:30:42;;;;;;;;;11.00;10.50;;;;;-147.17;100.00;50381.41;5048932;28;50996;-62
2021/11/26 07:33:08;;;;;;;;;9.50;8.00;;;;;-147.17;100.00;50365.66;5021696;28;51230;-63
2021/11/26 07:35:34;;;;;;;;;8.25;8.00;;;;;-147.17;100.00;50377.47;5042967;28;51336;-62
2021/11/26 07:38:00;;;;;;;;;12.00;12.00;;;;;-147.17;100.00;50410.94;5031860;28;51642;-62
2021/11/26 07:40:25;;;;;;;;;9.25;8.00;;;;;-147.17;100.00;50418.81;5033348;28;51126;-62
2021/11/26 07:42:51;;;;;;;;;13.25;11.25;;;;;-147.17;100.00;50389.28;5028778;28;51261;-62
2021/11/26 07:45:16;;;;;;;;;13.00;11.00;;;;;-147.17;100.00;50399.13;5013042;28;51145;-63
2021/11/26 07:47:42;;;;;;;;;12.50;9.25;;;;;-147.17;100.00;50428.66;5026422;28;52004;-62
2021/11/26 07:50:10;;;;;;;;;11.75;10.75;;;;;-147.17;100.00;50416.84;5013372;28;51352;-62
2021/11/26 07:52:36;;;;;;;;;12.00;12.00;;;;;-147.17;100.00;50426.69;5025168;28;51171;-69
2021/11/26 07:55:03;;;;;;;;;12.25;11.00;;;;;-147.17;100.00;50418.81;5027032;28;51219;-68
2021/11/26 07:57:29;;;;;;;;;11.25;11.00;;;;;-147.17;100.00;50407.00;5019717;28;51906;-66
2021/11/26 07:59:54;;;;;;;;;13.75;12.25;;;;;-147.17;100.00;50407.00;5020979;28;52092;-66
2021/11/26 08:02:20;;;;;;;;;13.00;12.50;;;;;-147.17;100.00;50420.78;5026430;28;51263;-66
2021/11/26 08:04:45;;;;;;;;;12.50;11.75;;;;;-147.17;100.00;50389.28;5029090;28;51435;-66
2021/11/26 08:07:10;;;;;;;;;11.00;10.75;;;;;-147.17;100.00;50407.00;5031354;28;53965;-64
2021/11/26 08:09:36;;;;;;;;;12.75;11.25;;;;;-147.17;100.00;50426.69;5032323;28;51027;-65
2021/11/26 08:12:02;;;;;;;;;12.00;9.25;;;;;-147.17;100.00;50418.81;5026786;28;51390;-67
2021/11/26 08:14:28;;;;;;;;;12.75;11.25;;;;;-147.17;100.00;50444.41;5045050;28;51275;-65
2021/11/26 08:16:54;;;;;;;;;11.00;9.50;;;;;-147.17;100.00;50426.69;5030487;28;51445;-66
2021/11/26 08:19:21;;;;;;;;;11.00;9.50;;;;;-147.17;100.00;50403.06;5014155;28;51012;-66
2021/11/26 08:21:48;;;;;;;;;10.75;8.75;;;;;-147.17;100.00;50418.81;5029608;28;50971;-66
2021/11/26 08:24:15;;;;;;;;;12.00;11.25;;;;;-147.17;100.00;50432.59;5028772;28;51205;-66
2021/11/26 08:26:43;;;;;;;;;13.00;8.50;;;;;-147.17;100.00;50426.69;5029750;28;51790;-64
2021/11/26 08:29:09;;;;;;;;;6.75;6.75;;;;;-147.17;100.00;50434.56;5033413;28;51178;-61
2021/11/26 08:31:36;;;;;;;;;12.00;11.00;;;;;-147.17;100.00;50432.59;5028746;28;51220;-62
2021/11/26 08:34:03;;;;;;;;;2.00;1.75;;;;;-147.17;100.00;50430.63;5029294;28;51020;-63
2021/11/26 08:36:28;;;;;;;;;11.00;9.25;;;;;-147.17;100.00;50454.25;5028680;28;51286;-63
2021/11/26 08:38:55;;;;;;;;;20.75;17.50;;;;;-147.17;100.00;50391.25;5032830;28;51107;-64
2021/11/26 08:41:20;;;;;;;;;18.50;17.25;;;;;-147.17;100.00;50440.47;5032328;28;51200;-64
2021/11/26 08:43:46;;;;;;;;;11.25;11.00;;;;;-147.17;100.00;50458.19;5020420;28;51093;-64
2021/11/26 08:46:12;;;;;;;;;10.25;10.25;;;;;-147.17;100.00;50442.44;5026282;28;50944;-64
2021/11/26 08:48:37;;;;;;;;;11.75;11.75;;;;;-147.17;100.00;50454.25;5013158;28;51159;-64
2021/11/26 08:51:03;;;;;;;;;12.00;11.00;;;;;-147.17;100.00;50442.44;5014950;28;51259;-64
2021/11/26 08:53:29;;;;;;;;;16.25;15.00;;;;;-147.17;100.00;50422.75;5021415;28;51122;-64
2021/11/26 08:55:55;;;;;;;;;7.25;7.25;;;;;-147.17;100.00;50481.81;5031388;28;51162;-65
2021/11/26 08:58:22;;;;;;;;;8.50;7.50;;;;;-147.17;100.00;50466.06;5032403;28;50884;-64
2021/11/26 09:00:48;;;;;;;;;5.75;5.75;;;;;-147.17;100.00;50456.22;5013777;28;51001;-64
2021/11/26 09:03:15;;;;;;;;;49.00;42.25;;;;;-147.17;100.00;50444.41;5019996;28;50911;-63
2021/11/26 09:05:41;;;;;;;;;7.00;7.00;;;;;-147.17;100.00;50426.69;5012620;28;51904;-64
2021/11/26 09:08:13;;;;;;;;;8.00;7.75;;;;;-147.17;100.00;50470.00;5013135;28;51161;-64
2021/11/26 09:10:40;;;;;;;;;11.25;9.50;;;;;-147.17;100.00;50438.50;5013109;28;51150;-64
2021/11/26 09:13:06;;;;;;;;;6.75;6.00;;;;;-147.17;100.00;50403.06;5018189;28;51411;-64
2021/11/26 09:15:33;;;;;;;;;8.50;7.75;;;;;-147.17;100.00;50462.13;5031933;28;51136;-64
2021/11/26 09:17:59;;;;;;;;;9.50;7.00;;;;;-147.17;100.00;50466.06;5032264;28;50971;-64
2021/11/26 09:20:25;;;;;;;;;8.75;8.75;;;;;-147.17;100.00;50454.25;5019028;28;51383;-64
2021/11/26 09:22:51;;;;;;;;;8.50;8.00;;;;;-147.17;100.00;50481.81;5027646;28;51060;-64
2021/11/26 09:25:16;;;;;;;;;9.00;8.50;;;;;-147.17;100.00;50458.19;5012529;28;51371;-65
2021/11/26 09:27:42;;;;;;;;;9.00;7.25;;;;;-147.17;100.00;50473.94;5020431;28;51061;-63
2021/11/26 09:30:11;;;;;;;;;6.50;5.00;;;;;-147.17;100.00;50470.00;5025104;28;50850;-65
2021/11/26 09:32:37;;;;;;;;;7.50;6.75;;;;;-147.17;100.00;50487.72;5023443;28;51104;-64
2021/11/26 09:35:04;;;;;;;;;10.25;7.00;;;;;-147.17;100.00;50491.66;5015770;28;51662;-65
2021/11/26 09:37:29;;;;;;;;;7.75;7.75;;;;;-147.17;100.00;50517.25;5032414;28;50857;-64
2021/11/26 09:39:55;;;;;;;;;6.00;6.00;;;;;-147.17;100.00;50501.50;5026867;28;51154;-64
2021/11/26 09:42:21;;;;;;;;;10.75;9.25;;;;;-147.17;100.00;50493.63;5024090;28;51286;-64
2021/11/26 09:44:46;;;;;;;;;7.25;7.25;;;;;-147.17;100.00;50509.38;5031212;28;50987;-65
2021/11/26 09:47:12;;;;;;;;;12.00;11.75;;;;;-147.17;100.00;50485.75;5031934;28;50972;-64
2021/11/26 09:49:38;;;;;;;;;7.75;7.00;;;;;-147.17;100.00;50540.88;5026711;28;51169;-64
2021/11/26 09:52:04;;;;;;;;;7.50;7.50;;;;;-147.17;100.00;50533.00;5027481;28;51076;-64
2021/11/26 09:54:40;;;;;;;;;4.25;4.25;;;;;-147.17;100.00;50519.22;5014362;28;52879;-64
2021/11/26 09:57:08;;;;;;;;;6.50;5.75;;;;;-147.17;100.00;50540.88;5013932;28;51095;-65
2021/11/26 09:59:34;;;;;;;;;6.25;6.25;;;;;-147.17;100.00;50527.09;5031209;28;51057;-65
2021/11/26 10:02:12;;;;;;;;;6.00;6.00;;;;;-147.17;100.00;50533.00;5031743;28;50942;-63
2021/11/26 10:04:37;;;;;;;;;4.75;4.00;;;;;-147.17;100.00;50550.72;5031598;28;51799;-64
2021/11/26 10:07:04;;;;;;;;;3.25;3.00;;;;;-147.17;100.00;50548.75;5032712;28;51126;-63
2021/11/26 10:09:35;;;;;;;;;5.00;4.50;;;;;-147.17;100.00;50570.41;5034405;28;51110;-64
2021/11/26 10:12:10;;;;;;;;;6.25;6.25;;;;;-147.17;100.00;50536.94;5019756;28;51138;-64
2021/11/26 10:14:39;;;;;;;;;6.00;6.00;;;;;-147.17;100.00;50548.75;5014780;28;51622;-64
2021/11/26 10:17:13;;;;;;;;;8.00;7.00;;;;;-147.17;100.00;50533.00;5015034;28;51018;-63
2021/11/26 10:19:48;;;;;;;;;9.50;7.50;;;;;-147.17;100.00;50548.75;5020232;28;50936;-64
2021/11/26 10:22:16;;;;;;;;;6.00;5.50;;;;;-147.17;100.00;50507.41;5014861;28;51471;-64
2021/11/26 10:24:43;;;;;;;;;8.75;7.00;;;;;-147.17;100.00;50544.81;5015013;28;51086;-64
2021/11/26 10:27:08;;;;;;;;;8.00;6.25;;;;;-147.17;100.00;50531.03;5033653;28;51109;-64
2021/11/26 10:29:37;;;;;;;;;6.00;4.00;;;;;-147.17;100.00;50533.00;5021005;28;51066;-64
2021/11/26 10:32:09;;;;;;;;;4.00;3.00;;;;;-147.17;100.00;50576.31;5015740;28;51373;-64
2021/11/26 10:34:36;;;;;;;;;6.00;4.00;;;;;-147.17;100.00;50499.53;5031295;28;51832;-64
2021/11/26 10:37:03;;;;;;;;;3.50;3.00;;;;;-147.17;100.00;50493.63;5034410;28;51047;-65
2021/11/26 10:39:28;;;;;;;;;0.00;0.00;;;;;-147.17;100.00;50552.69;5034429;28;51000;-63
2021/11/26 10:41:58;;;;;;;;;3.75;2.50;;;;;-147.17;100.00;50552.69;5033912;28;51094;-64
2021/11/26 10:44:53;;;;;;;;;7.00;6.25;;;;;-147.17;100.00;50523.16;5018634;28;51888;-64
2021/11/26 11:00:11;;;;;;;;;4.50;3.25;;;;;-147.17;100.00;50519.22;5014877;28;51122;-64
2021/11/26 11:02:40;;;;;;;;;6.25;4.50;;;;;-147.17;100.00;50538.91;5021864;28;50993;-63
2021/11/26 11:05:09;;;;;;;;;13.50;12.50;;;;;-147.17;100.00;50538.91;5013942;28;52627;-64
2021/11/26 11:07:39;;;;;;;;;8.50;7.50;;;;;-147.17;100.00;50536.94;5013066;28;51114;-64
2021/11/26 11:10:05;;;;;;;;;7.00;6.75;;;;;-147.17;100.00;50519.22;5014530;28;51097;-64
2021/11/26 11:12:37;;;;;;;;;6.00;4.50;;;;;-147.17;100.00;50534.97;5018714;28;50948;-64
2021/11/26 11:15:08;;;;;;;;;6.25;6.25;;;;;-147.17;99.64;50558.59;5013971;28;52010;-64